»·PEaware :: N604S KSAN-KRDD

N604S :: KSAN-KRDD

FLIGHT INFORMATION

Flight Status: Arrived
Operator: Privately registered:
United States
More flights under this callsign
Pilot: Andy P. (22680)
Aircraft: GATES LEARJET LEARJET 35/36
(LJ35)
More flights by this aircraft type
Origin: KSAN San Diego Intl-Lindbergh
United States
Destination: KRDD Redding Mun
United States
More flights between these airports :: More routes between these airports
Route: PADRZ2 EHF RBL
File this flight plan on PilotEdge
Remarks:
Altitude:
(Current/Filed)
34,000ft
Speed:
(Current/Filed)
465kts
Departed: 13-Feb-20 02:46 PM
Arrived: 13-Feb-20 04:13 PM
Distance/Time
Traveled:
527nm/1:27
Distance/Time
To Go:
Arrived

Flight Plot

Page will automatically refresh every two minutes.

Flight plan parsing failed; only flown route is shown


Map Options




Map Legend


Flown Route
Filed Route
Departure Airport
Arrival Airport
Navaid (VOR, NDB)
Fix

Horizontal Profiles

Position Reports

Time Latitude Longitude Heading Altitude Ground
Speed
13-Feb-20 14:25 32.733327 -117.178210 14 18ft 0kts
13-Feb-20 14:26 32.733327 -117.178210 14 18ft 0kts
13-Feb-20 14:27 32.733327 -117.178210 14 18ft 0kts
13-Feb-20 14:28 32.733327 -117.178210 14 18ft 0kts
13-Feb-20 14:29 32.733327 -117.178210 14 18ft 0kts
13-Feb-20 14:30 32.733327 -117.178210 14 18ft 0kts
13-Feb-20 14:31 32.733327 -117.178210 14 18ft 0kts
13-Feb-20 14:32 32.733327 -117.178210 14 18ft 0kts
13-Feb-20 14:33 32.733327 -117.178210 14 18ft 0kts
13-Feb-20 14:34 32.733327 -117.178210 14 18ft 0kts
13-Feb-20 14:35 32.733327 -117.178210 14 18ft 0kts
13-Feb-20 14:36 32.733327 -117.178210 14 18ft 0kts
13-Feb-20 14:37 32.733327 -117.178210 14 18ft 0kts
13-Feb-20 14:38 32.733327 -117.178210 14 18ft 0kts
13-Feb-20 14:40 32.733328 -117.178209 14 18ft 0kts
13-Feb-20 14:41 32.733328 -117.178209 14 18ft 0kts
13-Feb-20 14:42 32.733328 -117.178209 14 18ft 0kts
13-Feb-20 14:43 32.732783 -117.178585 108 18ft 18kts
13-Feb-20 14:44 32.731146 -117.175381 160 18ft 0kts
13-Feb-20 14:45 32.730303 -117.176366 284 18ft 17kts
13-Feb-20 14:46 32.743775 -117.218364 303 1259ft 187kts
13-Feb-20 14:47 32.777894 -117.277095 302 4109ft 228kts
13-Feb-20 14:48 32.813776 -117.342006 308 7324ft 250kts
13-Feb-20 14:49 32.858202 -117.409558 307 10549ft 269kts
13-Feb-20 14:50 32.905448 -117.482786 308 13761ft 286kts
13-Feb-20 14:51 32.957724 -117.564148 307 14996ft 349kts
13-Feb-20 14:52 33.015722 -117.654709 307 18417ft 328kts
13-Feb-20 14:53 33.071075 -117.736367 315 22188ft 318kts
13-Feb-20 14:54 33.141686 -117.808784 319 24579ft 348kts
13-Feb-20 14:55 33.216797 -117.884869 320 27229ft 361kts
13-Feb-20 14:56 33.288148 -117.954071 319 29240ft 372kts
13-Feb-20 14:56 33.354686 -118.019065 319 31252ft 368kts
13-Feb-20 14:58 33.446291 -118.108831 319 33950ft 363kts
13-Feb-20 14:59 33.522840 -118.184079 319 34122ft 409kts
13-Feb-20 14:59 33.590106 -118.242879 329 34121ft 438kts
13-Feb-20 15:00 33.690064 -118.299090 334 34116ft 462kts
13-Feb-20 15:02 33.816493 -118.366789 336 34117ft 460kts
13-Feb-20 15:02 33.913682 -118.415298 336 34117ft 458kts
13-Feb-20 15:03 34.034752 -118.464221 349 34112ft 459kts
13-Feb-20 15:04 34.161249 -118.484237 351 34094ft 459kts
13-Feb-20 15:05 34.288154 -118.503785 351 34082ft 459kts
13-Feb-20 15:06 34.414345 -118.523267 351 34126ft 457kts
13-Feb-20 15:07 34.540718 -118.542845 352 34141ft 457kts
13-Feb-20 15:08 34.667143 -118.562471 352 34141ft 457kts
13-Feb-20 15:09 34.793171 -118.582116 352 34145ft 457kts
13-Feb-20 15:10 34.919814 -118.601896 352 34126ft 458kts
13-Feb-20 15:11 35.040032 -118.645748 325 34124ft 457kts
13-Feb-20 15:12 35.138640 -118.744326 320 34103ft 457kts
13-Feb-20 15:13 35.225361 -118.832475 320 34090ft 457kts
13-Feb-20 15:14 35.314757 -118.923602 320 34074ft 458kts
13-Feb-20 15:15 35.412482 -119.023526 320 34067ft 458kts
13-Feb-20 15:16 35.515048 -119.116098 330 34064ft 458kts
13-Feb-20 15:17 35.628097 -119.188552 332 34065ft 458kts
13-Feb-20 15:18 35.741283 -119.260786 332 34065ft 458kts
13-Feb-20 15:19 35.854604 -119.333295 332 34065ft 459kts
13-Feb-20 15:20 35.967841 -119.405976 332 34066ft 459kts
13-Feb-20 15:21 36.081246 -119.479003 332 34071ft 458kts
13-Feb-20 15:22 36.194130 -119.551930 332 34077ft 459kts
13-Feb-20 15:23 36.307697 -119.625543 332 34079ft 460kts
13-Feb-20 15:24 36.420903 -119.699165 332 34080ft 460kts
13-Feb-20 15:25 36.534345 -119.773184 332 34080ft 461kts
13-Feb-20 15:26 36.648116 -119.847669 332 34080ft 461kts
13-Feb-20 15:27 36.761536 -119.922174 332 34080ft 462kts
13-Feb-20 15:28 36.875674 -119.997424 332 34080ft 463kts
13-Feb-20 15:29 36.989321 -120.072572 332 34081ft 463kts
13-Feb-20 15:30 37.103120 -120.148091 332 34080ft 463kts
13-Feb-20 15:31 37.217123 -120.224007 332 34080ft 464kts
13-Feb-20 15:32 37.331198 -120.300238 332 34117ft 464kts
13-Feb-20 15:33 37.445429 -120.376835 333 34081ft 465kts
13-Feb-20 15:34 37.559275 -120.453441 332 34145ft 465kts
13-Feb-20 15:35 37.673560 -120.530615 332 34136ft 466kts
13-Feb-20 15:36 37.787789 -120.608023 332 34113ft 466kts
13-Feb-20 15:37 37.902262 -120.685870 332 34113ft 466kts
13-Feb-20 15:38 38.016548 -120.763873 332 34113ft 466kts
13-Feb-20 15:39 38.130703 -120.842060 332 34113ft 467kts
13-Feb-20 15:40 38.245314 -120.920866 332 34112ft 467kts
13-Feb-20 15:41 38.359354 -120.999554 332 34112ft 467kts
13-Feb-20 15:42 38.473856 -121.078827 332 34111ft 467kts
13-Feb-20 15:43 38.588039 -121.158167 332 34103ft 467kts
13-Feb-20 15:44 38.702107 -121.237714 332 34102ft 467kts
13-Feb-20 15:45 38.816549 -121.317832 332 34102ft 467kts
13-Feb-20 15:46 38.930657 -121.397213 332 34103ft 468kts
13-Feb-20 15:47 39.044818 -121.478351 332 34103ft 468kts
13-Feb-20 15:48 39.159126 -121.559417 331 32963ft 462kts
13-Feb-20 15:49 39.272117 -121.639719 331 31180ft 467kts
13-Feb-20 15:50 39.386971 -121.721638 331 29356ft 476kts
13-Feb-20 15:51 39.504800 -121.805667 332 27498ft 494kts
13-Feb-20 15:52 39.638938 -121.840769 354 25480ft 485kts
13-Feb-20 15:53 39.770374 -121.860912 352 23438ft 469kts
13-Feb-20 15:54 39.898830 -121.882758 351 21428ft 463kts
13-Feb-20 15:55 40.024046 -121.904535 351 19492ft 436kts
13-Feb-20 15:56 40.144159 -121.925543 351 17641ft 436kts
13-Feb-20 15:57 40.262647 -121.946368 351 15775ft 425kts
13-Feb-20 15:58 40.366929 -121.964767 351 14130ft 408kts
13-Feb-20 15:59 40.477934 -121.984392 351 12626ft 392kts
13-Feb-20 16:00 40.569275 -122.000563 351 10338ft 284kts
13-Feb-20 16:01 40.643737 -122.013828 351 8419ft 243kts
13-Feb-20 16:02 40.702573 -122.028871 329 7980ft 199kts
13-Feb-20 16:03 40.738076 -122.081950 302 7508ft 203kts
13-Feb-20 16:04 40.766534 -122.149804 291 6880ft 217kts
13-Feb-20 16:05 40.783423 -122.224277 278 6244ft 204kts
13-Feb-20 16:06 40.772479 -122.284334 217 5693ft 184kts
13-Feb-20 16:07 40.724012 -122.292970 181 4736ft 186kts
13-Feb-20 16:08 40.671241 -122.299497 190 3675ft 193kts
13-Feb-20 16:09 40.618801 -122.295737 177 2812ft 166kts
13-Feb-20 16:10 40.579002 -122.294639 177 1531ft 139kts
13-Feb-20 16:11 40.542803 -122.295046 180 958ft 127kts
13-Feb-20 16:12 40.512466 -122.294876 179 505ft 35kts
13-Feb-20 16:13 40.508371 -122.296094 293 505ft 0kts
13-Feb-20 16:14 40.507824 -122.297910 240 505ft 20kts
13-Feb-20 16:15 40.508456 -122.299103 355 505ft 0kts
13-Feb-20 16:16 40.508456 -122.299103 355 505ft 0kts
13-Feb-20 16:17 40.508456 -122.299103 355 505ft 0kts
13-Feb-20 16:18 40.508456 -122.299103 355 505ft 0kts
13-Feb-20 16:19 40.508456 -122.299103 355 505ft 0kts
13-Feb-20 16:20 40.508456 -122.299103 355 505ft 0kts
13-Feb-20 16:21 40.508456 -122.299103 355 505ft 0kts
13-Feb-20 16:22 40.508456 -122.299103 355 505ft 0kts
13-Feb-20 16:23 40.508456 -122.299103 355 505ft 0kts
13-Feb-20 16:24 40.508456 -122.299103 355 505ft 0kts
13-Feb-20 16:25 40.508456 -122.299103 355 505ft 0kts
13-Feb-20 16:26 40.508456 -122.299103 355 505ft 0kts
13-Feb-20 16:27 40.508456 -122.299103 355 505ft 0kts

Navigation Log

Ident Type
Flight plan parsing failed, navigation log unavailable